Time;durP1;ratioP1;P1;durP2;ratioP2;P2;SDS_P1;SDS_P2;PMS_P1;PMS_P2;Temp;Humidity;BMP_temperature;BMP_pressure;BME280_temperature;BME280_humidity;BME280_pressure;Samples;Min_cycle;Max_cycle;Signal;HPM_P1;HPM_P2
2022/05/09 00:00:12;;;;;;;1.50;1.10;;;12.60;91.20;;;;;;5013957;28;20460;-75
2022/05/09 00:02:40;;;;;;;1.43;1.10;;;12.60;90.60;;;;;;5009005;28;20542;-75
2022/05/09 00:05:13;;;;;;;1.43;1.00;;;12.60;90.50;;;;;;5014962;28;20463;-75
2022/05/09 00:07:39;;;;;;;1.50;1.10;;;12.50;91.20;;;;;;5010798;28;21048;-75
2022/05/09 00:10:08;;;;;;;1.50;1.07;;;12.50;90.70;;;;;;5008447;28;20472;-75
2022/05/09 00:12:35;;;;;;;1.50;1.10;;;12.50;91.50;;;;;;5019905;28;20487;-75
2022/05/09 00:15:03;;;;;;;1.47;1.10;;;12.50;91.00;;;;;;5013583;28;20944;-75
2022/05/09 00:17:31;;;;;;;1.50;1.13;;;12.40;91.60;;;;;;5006865;28;20488;-75
2022/05/09 00:19:58;;;;;;;1.50;1.20;;;12.40;91.50;;;;;;5009033;28;21000;-75
2022/05/09 00:22:26;;;;;;;1.50;1.10;;;12.30;91.80;;;;;;5024766;28;21022;-75
2022/05/09 00:24:54;;;;;;;1.47;1.10;;;12.30;91.60;;;;;;5019683;28;20467;-75
2022/05/09 00:27:21;;;;;;;1.50;1.10;;;12.30;91.60;;;;;;5024664;28;20730;-75
2022/05/09 00:29:48;;;;;;;1.50;1.10;;;12.20;93.40;;;;;;5009638;28;20522;-75
2022/05/09 00:32:16;;;;;;;1.50;1.20;;;12.20;91.90;;;;;;5016251;28;20495;-75
2022/05/09 00:34:43;;;;;;;1.50;1.20;;;12.20;92.70;;;;;;5009749;28;20618;-75
2022/05/09 00:37:10;;;;;;;1.50;1.10;;;12.20;92.10;;;;;;5002279;28;20479;-75
2022/05/09 00:39:38;;;;;;;1.50;1.00;;;12.20;92.40;;;;;;5013515;28;20963;-75
2022/05/09 00:42:08;;;;;;;1.50;1.10;;;12.10;93.20;;;;;;5011345;28;20495;-75
2022/05/09 00:44:35;;;;;;;1.50;1.10;;;12.10;93.10;;;;;;5010487;28;20468;-75
2022/05/09 00:47:02;;;;;;;1.50;1.10;;;12.00;92.20;;;;;;5011049;28;20881;-75
2022/05/09 00:49:33;;;;;;;1.43;1.10;;;12.00;92.80;;;;;;5008039;28;20546;-76
2022/05/09 00:52:06;;;;;;;1.50;1.20;;;12.00;92.40;;;;;;5011543;28;20491;-75
2022/05/09 00:54:38;;;;;;;1.50;1.10;;;12.00;93.50;;;;;;5019696;28;20470;-75
2022/05/09 00:57:14;;;;;;;1.50;1.10;;;11.90;93.40;;;;;;5025390;28;20986;-75
2022/05/09 00:59:43;;;;;;;1.47;1.10;;;11.90;93.50;;;;;;5023080;28;20463;-75
2022/05/09 01:02:10;;;;;;;1.47;1.10;;;11.90;93.10;;;;;;5019723;28;20490;-76
2022/05/09 01:04:45;;;;;;;1.50;1.10;;;11.90;92.70;;;;;;5024648;28;20562;-75
2022/05/09 01:07:12;;;;;;;1.50;1.10;;;11.80;93.10;;;;;;5002861;28;20496;-75
2022/05/09 01:09:40;;;;;;;1.50;1.23;;;11.80;93.10;;;;;;5009399;28;20479;-75
2022/05/09 01:12:11;;;;;;;1.50;1.10;;;11.80;93.60;;;;;;5017887;28;20488;-75
2022/05/09 01:14:39;;;;;;;1.50;1.10;;;11.80;93.80;;;;;;5022397;28;20459;-75
2022/05/09 01:17:09;;;;;;;1.50;1.10;;;11.80;94.20;;;;;;5026116;28;20475;-75
2022/05/09 01:19:38;;;;;;;1.50;1.20;;;11.70;93.80;;;;;;5022370;28;20455;-75
2022/05/09 01:22:19;;;;;;;1.47;1.10;;;11.70;93.50;;;;;;5021975;28;20558;-75
2022/05/09 01:24:46;;;;;;;1.50;1.20;;;11.70;93.70;;;;;;5012611;28;20456;-75
2022/05/09 01:27:13;;;;;;;1.50;1.20;;;11.70;94.70;;;;;;5023046;28;20463;-75
2022/05/09 01:29:45;;;;;;;1.47;1.10;;;11.60;93.70;;;;;;5012186;28;20468;-75
2022/05/09 01:32:14;;;;;;;1.47;1.10;;;11.60;93.30;;;;;;5026161;28;20495;-75
2022/05/09 01:34:46;;;;;;;1.43;1.10;;;11.60;93.70;;;;;;5024084;28;20464;-75
2022/05/09 01:37:15;;;;;;;1.47;1.10;;;11.60;95.10;;;;;;5019588;28;20892;-75
2022/05/09 01:39:41;;;;;;;1.43;1.10;;;11.60;94.30;;;;;;5013541;28;20864;-75
2022/05/09 01:42:11;;;;;;;1.50;1.20;;;11.60;94.20;;;;;;5026004;28;20495;-75
2022/05/09 01:44:38;;;;;;;1.50;1.10;;;11.50;94.90;;;;;;5022348;28;20499;-75
2022/05/09 01:49:50;;;;;;;1.50;1.20;;;11.50;95.40;;;;;;5032901;28;20451;-75
2022/05/09 01:52:21;;;;;;;1.50;1.20;;;11.50;95.30;;;;;;5028189;28;20479;-75
2022/05/09 01:54:49;;;;;;;1.47;1.10;;;11.40;95.10;;;;;;5025148;28;20808;-76
2022/05/09 01:57:16;;;;;;;1.50;1.10;;;11.40;96.30;;;;;;5029994;28;20485;-75
2022/05/09 01:59:43;;;;;;;1.50;1.10;;;11.40;95.60;;;;;;5015842;28;20493;-75
2022/05/09 02:02:13;;;;;;;1.50;1.10;;;11.40;96.20;;;;;;5018954;28;20511;-75
2022/05/09 02:04:41;;;;;;;1.50;1.10;;;11.40;96.40;;;;;;5020980;28;20495;-76
2022/05/09 02:07:09;;;;;;;1.47;1.10;;;11.40;96.50;;;;;;5013179;28;20492;-75
2022/05/09 02:09:40;;;;;;;1.50;1.10;;;11.40;96.60;;;;;;5016203;28;20955;-75
2022/05/09 02:12:09;;;;;;;1.50;1.10;;;11.40;97.10;;;;;;5014691;28;20472;-75
2022/05/09 02:14:36;;;;;;;1.47;1.07;;;11.40;96.20;;;;;;5011947;28;20483;-75
2022/05/09 02:17:03;;;;;;;1.50;1.07;;;11.40;96.40;;;;;;5015565;28;20522;-75
2022/05/09 02:19:31;;;;;;;1.50;1.10;;;11.40;97.30;;;;;;5015652;28;20468;-75
2022/05/09 02:21:59;;;;;;;1.50;1.10;;;11.40;97.10;;;;;;5010842;28;20495;-75
2022/05/09 02:24:27;;;;;;;1.50;1.17;;;11.40;96.90;;;;;;5017186;28;20570;-75
2022/05/09 02:26:55;;;;;;;1.50;1.10;;;11.40;96.50;;;;;;5023542;28;20573;-76
2022/05/09 02:29:22;;;;;;;1.50;1.20;;;11.40;96.80;;;;;;5018777;28;20460;-76
2022/05/09 02:31:49;;;;;;;1.50;1.10;;;11.40;96.30;;;;;;5022706;28;20459;-75
2022/05/09 02:34:16;;;;;;;1.50;1.10;;;11.40;96.20;;;;;;5016439;28;20460;-75
2022/05/09 02:36:44;;;;;;;1.50;1.10;;;11.40;96.20;;;;;;5022128;28;20458;-75
2022/05/09 02:39:11;;;;;;;1.50;1.10;;;11.40;96.60;;;;;;5011047;28;20565;-75
2022/05/09 02:41:38;;;;;;;1.50;1.20;;;11.40;95.70;;;;;;5018180;28;20874;-76
2022/05/09 02:44:07;;;;;;;1.50;1.20;;;11.40;95.80;;;;;;5018622;28;20492;-76
2022/05/09 02:46:35;;;;;;;1.50;1.10;;;11.40;95.60;;;;;;5007762;28;20648;-75
2022/05/09 02:49:02;;;;;;;1.50;1.10;;;11.40;96.10;;;;;;5010157;28;20464;-75
2022/05/09 02:51:31;;;;;;;1.50;1.20;;;11.40;96.20;;;;;;5022129;28;20465;-75
2022/05/09 02:53:59;;;;;;;1.50;1.10;;;11.40;95.80;;;;;;5027661;28;20533;-75
2022/05/09 02:56:26;;;;;;;1.50;1.10;;;11.40;96.00;;;;;;5028919;28;20459;-75
2022/05/09 02:58:53;;;;;;;1.50;1.10;;;11.30;95.70;;;;;;5013608;28;20464;-75
2022/05/09 03:01:22;;;;;;;1.47;1.10;;;11.30;95.90;;;;;;5014549;28;21010;-75
2022/05/09 03:06:33;;;;;;;1.50;1.10;;;11.30;95.60;;;;;;5024648;28;20450;-75
2022/05/09 03:09:00;;;;;;;1.50;1.10;;;11.30;95.40;;;;;;5012013;28;20472;-75
2022/05/09 03:11:27;;;;;;;1.50;1.10;;;11.20;96.10;;;;;;5025961;28;20459;-76
2022/05/09 03:13:56;;;;;;;1.50;1.10;;;11.20;95.60;;;;;;5021871;28;20990;-76
2022/05/09 03:16:26;;;;;;;1.43;1.10;;;11.20;95.60;;;;;;5018433;28;21206;-75
2022/05/09 03:18:53;;;;;;;1.50;1.10;;;11.20;95.40;;;;;;5019222;28;20460;-76
2022/05/09 03:21:22;;;;;;;1.50;1.20;;;11.20;95.80;;;;;;5002955;28;20506;-75
2022/05/09 03:23:49;;;;;;;1.50;1.10;;;11.20;96.20;;;;;;5027015;28;20983;-75
2022/05/09 03:26:17;;;;;;;1.43;1.10;;;11.20;95.50;;;;;;5015134;28;20477;-75
2022/05/09 03:28:44;;;;;;;1.50;1.10;;;11.20;95.50;;;;;;5015312;28;20468;-76
2022/05/09 03:31:14;;;;;;;1.43;1.10;;;11.10;95.80;;;;;;5003500;28;21027;-76
2022/05/09 03:33:42;;;;;;;1.50;1.10;;;11.10;96.00;;;;;;5026584;28;20487;-76
2022/05/09 03:36:10;;;;;;;1.50;1.10;;;11.10;96.50;;;;;;5028716;28;20485;-76
2022/05/09 03:38:38;;;;;;;1.50;1.10;;;11.00;96.50;;;;;;5020683;28;20574;-79
2022/05/09 03:41:06;;;;;;;1.50;1.10;;;11.00;96.70;;;;;;5015808;28;20460;-76
2022/05/09 03:43:33;;;;;;;1.47;1.10;;;11.00;96.50;;;;;;5014018;28;20499;-76
2022/05/09 03:46:01;;;;;;;1.50;1.10;;;11.00;97.10;;;;;;5012455;28;20464;-76
2022/05/09 03:48:28;;;;;;;1.47;1.10;;;11.00;97.40;;;;;;5016484;28;20562;-76
2022/05/09 03:50:57;;;;;;;1.50;1.10;;;10.90;97.30;;;;;;5016865;28;20475;-76
2022/05/09 03:53:24;;;;;;;1.47;1.10;;;11.00;96.70;;;;;;5019176;28;20908;-77
2022/05/09 03:55:52;;;;;;;1.50;1.17;;;11.00;96.50;;;;;;5013536;28;20463;-76
2022/05/09 03:58:19;;;;;;;1.50;1.20;;;11.00;96.30;;;;;;5012504;28;20544;-76
2022/05/09 04:00:46;;;;;;;1.50;1.10;;;11.00;96.10;;;;;;5010137;28;20494;-77
2022/05/09 04:03:13;;;;;;;1.47;1.10;;;11.00;96.10;;;;;;4997511;28;20488;-77
2022/05/09 04:05:40;;;;;;;1.43;1.10;;;11.10;96.10;;;;;;5021003;28;20470;-77
2022/05/09 04:08:11;;;;;;;1.47;1.10;;;11.00;96.30;;;;;;5008506;28;20492;-77
2022/05/09 04:10:40;;;;;;;1.50;1.10;;;11.00;96.70;;;;;;5007600;28;20522;-77
2022/05/09 04:13:08;;;;;;;1.47;1.10;;;11.00;96.30;;;;;;5018992;28;21082;-77
2022/05/09 04:18:21;;;;;;;1.47;1.10;;;11.00;96.00;;;;;;4944218;28;20562;-77
2022/05/09 04:20:50;;;;;;;1.50;1.30;;;11.00;96.80;;;;;;5003993;28;20468;-77
2022/05/09 04:23:19;;;;;;;1.50;1.10;;;11.00;96.80;;;;;;5010278;28;20856;-77
2022/05/09 04:25:47;;;;;;;1.50;1.20;;;11.00;96.70;;;;;;5015239;28;20462;-77
2022/05/09 04:28:17;;;;;;;1.47;1.07;;;11.00;97.20;;;;;;5023249;28;20991;-75
2022/05/09 04:30:44;;;;;;;1.47;1.00;;;11.00;97.10;;;;;;5020019;28;20457;-76
2022/05/09 04:33:12;;;;;;;1.50;1.10;;;11.10;96.90;;;;;;5024329;28;20572;-75
2022/05/09 04:35:40;;;;;;;1.50;1.10;;;11.10;97.30;;;;;;5024396;28;20467;-75
2022/05/09 04:38:07;;;;;;;1.50;1.20;;;11.10;96.90;;;;;;5011596;28;20471;-74
2022/05/09 04:40:36;;;;;;;1.50;1.20;;;11.10;97.20;;;;;;5009903;28;20872;-76
2022/05/09 04:43:03;;;;;;;1.50;1.10;;;11.10;97.20;;;;;;5020206;28;20555;-75
2022/05/09 04:45:31;;;;;;;1.50;1.20;;;11.10;97.80;;;;;;5022347;28;20479;-75
2022/05/09 04:48:00;;;;;;;1.47;1.10;;;11.20;96.90;;;;;;5014393;28;20468;-75
2022/05/09 04:50:28;;;;;;;1.50;1.10;;;11.20;97.20;;;;;;5015723;28;20466;-74
2022/05/09 04:52:55;;;;;;;1.50;1.20;;;11.20;97.10;;;;;;5018503;28;20966;-75
2022/05/09 04:55:22;;;;;;;1.43;1.10;;;11.30;97.20;;;;;;5022738;28;20747;-75
2022/05/09 04:57:51;;;;;;;1.50;1.00;;;11.30;97.20;;;;;;5013556;28;20483;-75
2022/05/09 05:00:21;;;;;;;1.50;1.10;;;11.40;97.00;;;;;;5016259;28;20479;-75
2022/05/09 05:02:48;;;;;;;1.50;1.10;;;11.50;97.10;;;;;;4999622;28;20500;-75
2022/05/09 05:05:14;;;;;;;1.50;1.10;;;11.50;96.70;;;;;;5010172;28;20503;-75
2022/05/09 05:07:42;;;;;;;1.47;1.03;;;11.60;96.70;;;;;;5018081;28;20865;-74
2022/05/09 05:10:11;;;;;;;1.50;1.20;;;11.70;96.20;;;;;;5017112;28;21089;-75
2022/05/09 05:12:37;;;;;;;1.50;1.00;;;11.80;95.90;;;;;;5003093;28;20492;-74
2022/05/09 05:15:07;;;;;;;1.47;1.00;;;12.00;96.00;;;;;;5011153;28;20495;-75
2022/05/09 05:17:34;;;;;;;1.47;1.03;;;12.20;96.60;;;;;;5013814;28;20464;-75
2022/05/09 05:20:02;;;;;;;1.43;1.03;;;12.30;95.20;;;;;;5010842;28;20495;-76
2022/05/09 05:22:29;;;;;;;2.47;1.73;;;12.50;95.10;;;;;;5019565;28;20487;-75
2022/05/09 05:24:56;;;;;;;1.50;1.10;;;12.80;95.30;;;;;;5023958;28;20509;-76
2022/05/09 05:27:23;;;;;;;1.50;1.07;;;13.00;94.20;;;;;;5017793;28;20713;-77
2022/05/09 05:29:50;;;;;;;1.50;1.07;;;13.20;93.30;;;;;;5019508;28;20460;-77
2022/05/09 05:32:21;;;;;;;1.50;1.00;;;13.40;93.00;;;;;;5001141;28;20530;-77
2022/05/09 05:34:48;;;;;;;1.50;1.10;;;13.50;92.70;;;;;;5010766;28;20468;-77
2022/05/09 05:37:17;;;;;;;1.50;1.00;;;13.70;91.70;;;;;;5017843;28;20475;-77
2022/05/09 05:39:44;;;;;;;1.50;1.00;;;13.80;91.40;;;;;;5010253;28;20490;-76
2022/05/09 05:42:12;;;;;;;1.50;1.03;;;14.00;91.60;;;;;;5023427;28;20491;-78
2022/05/09 05:44:39;;;;;;;1.50;1.00;;;14.20;91.20;;;;;;5016456;28;20602;-78
2022/05/09 05:47:08;;;;;;;1.47;1.00;;;14.50;89.50;;;;;;5011720;28;20689;-77
2022/05/09 05:49:38;;;;;;;1.47;1.00;;;14.60;89.20;;;;;;5010137;28;20775;-74
2022/05/09 05:52:06;;;;;;;1.50;1.00;;;14.80;88.20;;;;;;5019624;28;20861;-75
2022/05/09 05:54:34;;;;;;;1.50;1.00;;;14.90;88.30;;;;;;5017986;28;20463;-74
2022/05/09 05:57:01;;;;;;;1.47;1.00;;;15.00;88.20;;;;;;5028108;28;20469;-75
2022/05/09 05:59:28;;;;;;;1.50;1.00;;;15.20;88.50;;;;;;5015488;28;20474;-76
2022/05/09 06:01:56;;;;;;;1.50;1.00;;;15.50;88.60;;;;;;5018296;28;20506;-75
2022/05/09 06:04:23;;;;;;;1.50;1.00;;;15.80;86.60;;;;;;5009727;28;20580;-75
2022/05/09 06:06:51;;;;;;;1.50;0.97;;;16.10;86.20;;;;;;5015095;28;20465;-77
2022/05/09 06:09:18;;;;;;;1.47;1.00;;;16.30;84.60;;;;;;5011700;28;20472;-75
2022/05/09 06:11:45;;;;;;;1.50;1.00;;;16.50;84.50;;;;;;5014425;28;20460;-75
2022/05/09 06:14:13;;;;;;;1.47;0.93;;;16.70;84.00;;;;;;5010666;28;20460;-75
2022/05/09 06:16:42;;;;;;;1.40;0.90;;;16.70;82.30;;;;;;5001580;28;20583;-75
2022/05/09 06:19:09;;;;;;;1.50;1.00;;;16.80;82.50;;;;;;5011411;28;20933;-74
2022/05/09 06:21:37;;;;;;;1.47;1.07;;;16.80;82.30;;;;;;5010966;28;20484;-75
2022/05/09 06:24:08;;;;;;;1.50;0.90;;;16.80;83.00;;;;;;5020894;28;20464;-76
2022/05/09 06:26:35;;;;;;;1.43;0.90;;;16.90;82.70;;;;;;5028653;28;20463;-75
2022/05/09 06:29:06;;;;;;;1.47;1.00;;;17.10;82.90;;;;;;5010511;28;20543;-74
2022/05/09 06:31:34;;;;;;;1.50;0.90;;;17.30;82.90;;;;;;5026719;28;20886;-75
2022/05/09 06:34:01;;;;;;;1.43;0.90;;;17.60;82.30;;;;;;5021624;28;20491;-74
2022/05/09 06:36:29;;;;;;;1.47;0.90;;;17.80;82.50;;;;;;5025179;28;20485;-75
2022/05/09 06:38:57;;;;;;;1.50;0.97;;;18.20;82.10;;;;;;5012705;28;20471;-74
2022/05/09 06:41:25;;;;;;;1.50;0.90;;;18.40;81.80;;;;;;5017291;28;20478;-76
2022/05/09 06:43:52;;;;;;;1.50;0.90;;;18.60;81.20;;;;;;5012182;28;20508;-78
2022/05/09 06:46:19;;;;;;;1.50;0.90;;;18.70;80.20;;;;;;5006411;28;20480;-75
2022/05/09 06:48:46;;;;;;;1.50;0.90;;;19.00;80.00;;;;;;5015112;28;20873;-76
2022/05/09 06:51:13;;;;;;;1.50;0.90;;;19.20;79.30;;;;;;5002402;28;20471;-75
2022/05/09 06:53:41;;;;;;;1.47;0.90;;;19.20;78.60;;;;;;5003988;28;20487;-75
2022/05/09 06:56:08;;;;;;;1.50;0.90;;;19.10;78.80;;;;;;5025291;28;20463;-75
2022/05/09 06:58:36;;;;;;;1.50;1.07;;;19.10;78.40;;;;;;5027975;28;20529;-74
2022/05/09 07:01:13;;;;;;;1.43;0.90;;;19.20;78.20;;;;;;5014650;28;20456;-75
2022/05/09 07:03:39;;;;;;;1.50;0.93;;;19.50;78.00;;;;;;5009354;28;20592;-75
2022/05/09 07:06:06;;;;;;;1.43;0.90;;;19.50;77.40;;;;;;5015958;28;20491;-75
2022/05/09 07:08:34;;;;;;;1.50;0.90;;;19.50;77.40;;;;;;5011934;28;20540;-74
2022/05/09 07:11:01;;;;;;;1.50;0.90;;;19.70;77.10;;;;;;4998848;28;20854;-75
2022/05/09 07:13:28;;;;;;;1.43;0.90;;;19.70;77.00;;;;;;5025389;28;20486;-76
2022/05/09 07:15:57;;;;;;;1.43;0.90;;;19.90;77.10;;;;;;5017280;28;20960;-74
2022/05/09 07:18:26;;;;;;;1.47;0.90;;;20.10;77.40;;;;;;5009130;28;20475;-76
2022/05/09 07:20:52;;;;;;;1.50;0.90;;;20.10;77.00;;;;;;4998521;28;20456;-75
2022/05/09 07:23:21;;;;;;;1.43;0.90;;;20.10;76.90;;;;;;5017093;28;21065;-75
2022/05/09 07:25:50;;;;;;;1.40;0.90;;;20.30;76.60;;;;;;5020440;28;20915;-75
2022/05/09 07:28:19;;;;;;;1.50;0.90;;;20.70;76.60;;;;;;5019440;28;20454;-75
2022/05/09 07:30:46;;;;;;;1.50;0.90;;;20.70;75.30;;;;;;5010986;28;20542;-76
2022/05/09 07:33:17;;;;;;;1.43;0.90;;;20.70;75.70;;;;;;5015867;28;20488;-75
2022/05/09 07:35:44;;;;;;;2.17;1.10;;;20.70;75.60;;;;;;5008774;28;20464;-75
2022/05/09 07:38:12;;;;;;;1.50;0.90;;;20.90;74.80;;;;;;5020393;28;20465;-75
2022/05/09 07:40:40;;;;;;;1.47;0.90;;;20.90;75.10;;;;;;5021459;28;20479;-75
2022/05/09 07:43:12;;;;;;;1.50;0.90;;;20.80;74.30;;;;;;5015427;28;20490;-75
2022/05/09 07:45:39;;;;;;;1.47;0.90;;;20.70;75.20;;;;;;5008483;28;21035;-75
2022/05/09 07:48:06;;;;;;;1.47;0.90;;;20.90;75.00;;;;;;5009694;28;20460;-75
2022/05/09 07:50:37;;;;;;;1.53;1.07;;;21.00;74.00;;;;;;5007140;28;20471;-75
2022/05/09 07:53:08;;;;;;;1.47;0.90;;;21.30;73.60;;;;;;5009559;28;20484;-75
2022/05/09 07:55:36;;;;;;;1.50;0.90;;;21.20;73.30;;;;;;5022797;28;20460;-75
2022/05/09 07:58:02;;;;;;;1.50;1.00;;;21.20;73.50;;;;;;5003404;28;20524;-76
2022/05/09 08:00:29;;;;;;;1.50;1.10;;;21.20;73.30;;;;;;5006937;28;20808;-75
2022/05/09 08:02:56;;;;;;;1.50;1.10;;;21.30;72.70;;;;;;5020362;28;20495;-75
2022/05/09 08:05:25;;;;;;;1.47;0.90;;;21.30;73.30;;;;;;5016349;28;20488;-76
2022/05/09 08:07:54;;;;;;;1.47;0.90;;;21.50;73.40;;;;;;5016301;28;20483;-75
2022/05/09 08:10:21;;;;;;;1.47;0.80;;;21.50;73.80;;;;;;5007462;28;20487;-74
2022/05/09 08:12:48;;;;;;;1.47;0.90;;;21.90;73.10;;;;;;5018599;28;20950;-75
2022/05/09 08:15:19;;;;;;;1.50;0.90;;;21.90;73.20;;;;;;5008930;28;20456;-76
2022/05/09 08:17:49;;;;;;;1.50;0.90;;;21.90;72.80;;;;;;5023258;28;20526;-74
2022/05/09 08:20:16;;;;;;;1.50;0.80;;;22.00;72.50;;;;;;5007312;28;20844;-76
2022/05/09 08:22:44;;;;;;;1.43;0.87;;;22.10;72.90;;;;;;5018139;28;20542;-76
2022/05/09 08:25:13;;;;;;;1.50;0.90;;;22.40;72.60;;;;;;5018492;28;20866;-75
2022/05/09 08:27:41;;;;;;;1.47;0.90;;;22.70;73.10;;;;;;5018419;28;20502;-75
2022/05/09 08:30:08;;;;;;;1.47;0.87;;;22.70;71.50;;;;;;5006216;28;21049;-74
2022/05/09 08:32:36;;;;;;;1.47;0.80;;;22.50;72.80;;;;;;5024192;28;20483;-75
2022/05/09 08:35:04;;;;;;;1.40;0.90;;;22.70;72.60;;;;;;5009169;28;20464;-75
2022/05/09 08:37:31;;;;;;;1.47;0.90;;;22.80;71.30;;;;;;4999648;28;20491;-74
2022/05/09 08:39:58;;;;;;;1.50;1.10;;;22.70;72.00;;;;;;5011664;28;20456;-74
2022/05/09 08:42:36;;;;;;;1.47;0.90;;;22.80;71.70;;;;;;5013927;28;20869;-74
2022/05/09 08:45:22;;;;;;;1.47;0.80;;;22.90;72.10;;;;;;5024749;28;20491;-74
2022/05/09 08:48:08;;;;;;;1.47;0.80;;;23.20;71.30;;;;;;5017826;28;20459;-75
2022/05/09 08:50:45;;;;;;;1.70;1.57;;;23.50;71.20;;;;;;5011239;28;20459;-75
2022/05/09 08:53:16;;;;;;;1.47;0.83;;;23.70;70.80;;;;;;5024466;28;20964;-75
2022/05/09 08:55:45;;;;;;;1.50;0.90;;;23.90;70.30;;;;;;5025950;28;20514;-75
2022/05/09 08:58:31;;;;;;;1.47;0.87;;;23.80;70.50;;;;;;5031611;28;20466;-75
2022/05/09 09:01:03;;;;;;;1.43;0.87;;;23.80;70.10;;;;;;5014710;28;20561;-75
2022/05/09 09:03:32;;;;;;;1.47;0.90;;;24.00;70.60;;;;;;5017543;28;20944;-74
2022/05/09 09:06:07;;;;;;;1.47;0.87;;;24.20;71.10;;;;;;5013590;28;20487;-73
2022/05/09 09:08:46;;;;;;;1.47;0.87;;;24.40;70.30;;;;;;5017031;28;20471;-75
2022/05/09 09:11:19;;;;;;;1.47;0.90;;;24.50;69.20;;;;;;5038272;22;20555;-77
2022/05/09 09:13:57;;;;;;;1.47;0.80;;;24.60;70.10;;;;;;5045829;28;20852;-77
2022/05/09 09:16:46;;;;;;;1.50;1.10;;;24.70;68.90;;;;;;5031790;28;20462;-77
2022/05/09 09:19:46;;;;;;;1.50;0.90;;;24.70;69.60;;;;;;5031307;28;20466;-77
2022/05/09 09:22:29;;;;;;;1.43;0.80;;;24.70;69.20;;;;;;5029971;28;20483;-77
2022/05/09 09:25:16;;;;;;;1.43;0.80;;;24.80;70.10;;;;;;5024097;28;20514;-76
2022/05/09 09:27:47;;;;;;;1.47;0.90;;;24.90;69.20;;;;;;5019551;28;20543;-77
2022/05/09 09:30:17;;;;;;;1.50;0.80;;;25.00;69.40;;;;;;5023334;28;20467;-78
2022/05/09 09:32:49;;;;;;;1.43;0.80;;;25.10;70.00;;;;;;5012202;28;20479;-77
2022/05/09 09:35:26;;;;;;;1.40;0.90;;;25.40;68.20;;;;;;5028569;28;20459;-77
2022/05/09 09:37:57;;;;;;;1.40;0.80;;;25.60;68.90;;;;;;5015815;28;20458;-77
2022/05/09 09:40:24;;;;;;;1.50;0.90;;;25.90;67.50;;;;;;5021010;28;20738;-77
2022/05/09 09:42:52;;;;;;;1.40;0.90;;;26.10;67.90;;;;;;5025050;28;20485;-77
2022/05/09 09:45:29;;;;;;;1.43;0.87;;;26.10;67.90;;;;;;5026270;28;20607;-77
2022/05/09 09:48:09;;;;;;;1.50;0.80;;;26.50;68.20;;;;;;5022485;28;20463;-77
2022/05/09 09:50:36;;;;;;;1.50;0.80;;;26.70;68.20;;;;;;5013832;28;20501;-78
2022/05/09 09:53:04;;;;;;;1.40;0.80;;;26.90;66.60;;;;;;5027926;28;20490;-78
2022/05/09 09:55:33;;;;;;;1.43;0.80;;;27.10;66.10;;;;;;5027202;28;20827;-77
2022/05/09 09:58:19;;;;;;;1.40;0.80;;;27.30;66.70;;;;;;5026095;28;20473;-77
2022/05/09 10:00:47;;;;;;;1.43;0.80;;;27.30;65.60;;;;;;5008138;28;20525;-77
2022/05/09 10:03:21;;;;;;;1.50;0.80;;;27.30;65.90;;;;;;5013225;28;20463;-77
2022/05/09 10:05:50;;;;;;;1.43;0.80;;;27.40;66.40;;;;;;5010793;28;20490;-77
2022/05/09 10:08:23;;;;;;;1.50;0.80;;;27.50;66.70;;;;;;5018587;28;20847;-77
2022/05/09 10:10:56;;;;;;;1.70;1.40;;;27.60;66.50;;;;;;5009636;28;20479;-77
2022/05/09 10:13:23;;;;;;;1.47;0.80;;;27.60;64.90;;;;;;5009772;28;20467;-77
2022/05/09 10:16:05;;;;;;;1.47;0.90;;;27.40;65.20;;;;;;5010155;28;20530;-77
2022/05/09 10:18:33;;;;;;;1.47;0.90;;;27.30;65.50;;;;;;5023803;28;20528;-77
2022/05/09 10:21:11;;;;;;;1.43;0.80;;;27.10;66.20;;;;;;5009751;28;20826;-78
2022/05/09 10:26:34;;;;;;;1.70;1.47;;;27.10;67.30;;;;;;4996413;28;20490;-77
2022/05/09 10:29:06;;;;;;;1.40;0.80;;;27.30;66.70;;;;;;4996186;28;20463;-77
2022/05/09 10:31:43;;;;;;;1.43;0.90;;;27.60;65.80;;;;;;5006809;28;20475;-76
2022/05/09 10:34:14;;;;;;;1.40;0.80;;;27.90;65.80;;;;;;5009511;28;20481;-75
2022/05/09 10:36:47;;;;;;;1.50;1.13;;;28.00;65.70;;;;;;5008271;28;20455;-77
2022/05/09 10:39:18;;;;;;;1.40;0.80;;;28.20;64.70;;;;;;5009148;28;20475;-77
2022/05/09 10:41:50;;;;;;;1.43;0.80;;;28.40;65.20;;;;;;5008087;28;20486;-76
2022/05/09 10:44:27;;;;;;;1.50;0.80;;;28.50;64.40;;;;;;5011088;28;21139;-78
2022/05/09 10:47:01;;;;;;;1.40;0.80;;;28.50;65.20;;;;;;5008383;28;20561;-78
2022/05/09 10:49:45;;;;;;;1.50;0.80;;;28.60;64.00;;;;;;5008462;28;21054;-76
2022/05/09 10:52:31;;;;;;;2.20;1.53;;;28.70;66.30;;;;;;5003471;28;20483;-78
2022/05/09 10:55:03;;;;;;;1.60;1.10;;;28.70;63.50;;;;;;5008904;28;20464;-77
2022/05/09 10:57:36;;;;;;;1.43;0.80;;;28.90;64.80;;;;;;5008023;28;20515;-78
2022/05/09 11:00:07;;;;;;;1.47;0.80;;;29.00;63.00;;;;;;5008388;28;20467;-77
2022/05/09 11:02:39;;;;;;;1.43;0.80;;;28.70;63.40;;;;;;5005452;28;20495;-79
2022/05/09 11:05:07;;;;;;;1.43;0.80;;;28.50;63.80;;;;;;5008765;28;20894;-78
2022/05/09 11:07:40;;;;;;;1.47;0.80;;;28.30;64.60;;;;;;5008682;28;20484;-78
2022/05/09 11:10:18;;;;;;;1.40;0.80;;;28.50;64.10;;;;;;5009109;28;20989;-77
2022/05/09 11:13:08;;;;;;;1.43;0.87;;;28.50;63.40;;;;;;5007951;28;20483;-78
2022/05/09 11:15:45;;;;;;;1.47;0.80;;;28.60;63.70;;;;;;5008721;28;20972;-78
2022/05/09 11:18:32;;;;;;;1.43;0.90;;;28.70;63.50;;;;;;5010404;28;20461;-77
2022/05/09 11:21:09;;;;;;;1.40;0.80;;;29.00;61.30;;;;;;5001881;28;20470;-77
2022/05/09 11:23:46;;;;;;;1.47;0.80;;;29.20;61.50;;;;;;5008836;28;20869;-79
2022/05/09 11:26:21;;;;;;;1.43;0.80;;;29.50;60.20;;;;;;5008522;28;20494;-79
2022/05/09 11:29:10;;;;;;;1.47;0.90;;;29.90;60.20;;;;;;5000521;28;20471;-78
2022/05/09 11:31:53;;;;;;;1.50;1.00;;;29.90;59.50;;;;;;4991420;28;20604;-78
2022/05/09 11:34:35;;;;;;;1.40;0.80;;;29.90;60.30;;;;;;5002758;28;20471;-78
2022/05/09 11:37:13;;;;;;;1.47;0.80;;;30.10;59.30;;;;;;5004381;28;20460;-79
2022/05/09 11:39:52;;;;;;;1.47;0.80;;;30.30;57.50;;;;;;5003051;28;20476;-79
2022/05/09 11:45:29;;;;;;;1.43;0.90;;;30.50;58.10;;;;;;5003633;28;20454;-79
2022/05/09 11:48:07;;;;;;;1.43;0.80;;;30.70;58.80;;;;;;5008170;28;20455;-79
2022/05/09 11:50:45;;;;;;;1.60;1.00;;;30.90;58.60;;;;;;5006698;28;20555;-78
2022/05/09 11:53:14;;;;;;;1.47;0.80;;;31.20;59.40;;;;;;5006574;28;21414;-79
2022/05/09 11:55:49;;;;;;;1.47;0.80;;;31.40;57.50;;;;;;5006249;28;20467;-79
2022/05/09 11:58:17;;;;;;;1.43;0.80;;;31.50;56.70;;;;;;5006659;28;20608;-78
2022/05/09 12:00:48;;;;;;;1.50;0.90;;;31.50;57.20;;;;;;5005588;28;20467;-78
2022/05/09 12:03:36;;;;;;;1.43;0.80;;;31.40;55.80;;;;;;5008291;28;20474;-78
2022/05/09 12:06:05;;;;;;;1.40;0.80;;;31.30;55.70;;;;;;5006686;28;20487;-78
2022/05/09 12:08:43;;;;;;;1.40;0.80;;;31.50;55.80;;;;;;5007440;28;20212;-79
2022/05/09 12:11:30;;;;;;;1.40;0.80;;;31.60;57.00;;;;;;5007425;28;20239;-75
2022/05/09 12:13:59;;;;;;;1.43;0.80;;;31.80;56.00;;;;;;4994777;28;20209;-78
2022/05/09 12:16:52;;;;;;;1.40;0.80;;;31.70;55.60;;;;;;5003444;28;20543;-78
2022/05/09 12:19:34;;;;;;;1.40;0.80;;;31.60;55.50;;;;;;5006397;28;20211;-78
2022/05/09 12:22:44;;;;;;;1.40;0.80;;;31.60;58.60;;;;;;5005878;28;20239;-78
2022/05/09 12:25:41;;;;;;;1.43;0.80;;;31.70;56.80;;;;;;5006063;28;20247;-78
2022/05/09 12:28:22;;;;;;;1.40;0.80;;;31.50;54.60;;;;;;4986308;28;20208;-78
2022/05/09 12:30:52;;;;;;;1.40;0.80;;;31.40;53.80;;;;;;5008689;28;20216;-78
2022/05/09 12:33:29;;;;;;;1.47;0.80;;;31.50;55.80;;;;;;5004275;28;20296;-78
2022/05/09 12:35:59;;;;;;;1.40;0.80;;;31.70;55.00;;;;;;5006541;28;20208;-78
2022/05/09 12:38:28;;;;;;;1.40;0.80;;;31.60;54.00;;;;;;5006625;28;20209;-78
2022/05/09 12:41:01;;;;;;;1.40;0.80;;;31.30;55.60;;;;;;5005792;28;20208;-78
2022/05/09 12:43:31;;;;;;;1.40;0.80;;;31.40;55.20;;;;;;5005224;28;20215;-78
2022/05/09 12:45:59;;;;;;;1.40;0.80;;;31.40;55.70;;;;;;5005432;28;20197;-78
2022/05/09 12:48:26;;;;;;;1.40;0.80;;;31.60;56.90;;;;;;5007309;28;20966;-78
2022/05/09 12:50:53;;;;;;;1.40;0.90;;;31.80;57.20;;;;;;5004184;28;20217;-79
2022/05/09 12:53:20;;;;;;;1.43;0.90;;;31.80;55.30;;;;;;5007554;28;20212;-78
2022/05/09 12:55:55;;;;;;;1.50;1.00;;;31.20;54.70;;;;;;5005444;28;20204;-77
2022/05/09 12:58:26;;;;;;;1.43;0.90;;;30.80;55.00;;;;;;5002981;28;20314;-76
2022/05/09 13:01:06;;;;;;;1.40;0.80;;;30.70;57.30;;;;;;5004606;28;20212;-80
2022/05/09 13:03:41;;;;;;;1.60;1.10;;;30.80;56.60;;;;;;5006355;28;20280;-78
2022/05/09 13:06:13;;;;;;;1.60;1.10;;;31.00;56.90;;;;;;5005286;28;20215;-78
2022/05/09 13:08:41;;;;;;;1.40;0.80;;;31.00;56.80;;;;;;5007726;28;20497;-78
2022/05/09 13:11:14;;;;;;;1.40;0.80;;;31.20;56.90;;;;;;5005832;28;20980;-79
2022/05/09 13:13:47;;;;;;;1.40;0.80;;;31.50;55.70;;;;;;5003001;28;20209;-77
2022/05/09 13:16:23;;;;;;;1.40;0.80;;;31.60;55.70;;;;;;5003461;28;20950;-79
2022/05/09 13:18:51;;;;;;;1.40;0.80;;;31.70;56.40;;;;;;5006751;28;20470;-78